Share

Honaunau, HI

Captain Cook (KHICAPTA3) Elev 915 ft | 19.31 °N, 155.88 °W | Change Station

Current weather conditions updated 5 minutes ago

Mostly Cloudy
Mostly Cloudy
77.6 °F
Feels Like 79 °F
N
2.0
Wind Variable Wind from WNW
Gusts 9.0 mph
Sunrise 6:02 AM
Sunset 6:42 PM
Moon Waning Gibbous

Today is forecast to be nearly the same temperature as yesterday. Chance of showers.

Pressure 30.14 in
Visibility 10.0 miles
Clouds Few 2200 ft
Mostly Cloudy 3600 ft
Mostly Cloudy 6000 ft
Heat Index 79 °F
Dew Point 65 °F
Humidity 65%
Rainfall 0.00 in
Snow Depth Not available.
UV 5.8 out of 16
Pollen Not available.
Air Quality Not available.
Flu Activity Local Activity
METAR PHTO 202153Z 35004KT 10SM FEW022 BKN036 BKN060 24/21 A3014 RMK AO2 RAB31E52 SLP205 P0000 T02390211

More Conditions Fewer Conditions

Pressure 30.14 in
Visibility 10.0 miles
Clouds Few 2200 ft
Mostly Cloudy 3600 ft
Mostly Cloudy 6000 ft
Heat Index 79 °F
Dew Point 65 °F
Humidity 65%
Rainfall 0.00 in
Snow Depth Not available.
UV 5.8 out of 16
Pollen Not available.
Air Quality Not available.
Flu Activity Local Activity
METAR PHTO 202153Z 35004KT 10SM FEW022 BKN036 BKN060 24/21 A3014 RMK AO2 RAB31E52 SLP205 P0000 T02390211

More Conditions Fewer Conditions

10-Day Weather Forecast

Almanac

Astronomy

Apr. 20, 2014 Rise Set
Actual Time 6:02 AM HST 6:42 PM HST
Civil Twilight 5:39 AM HST 7:05 PM HST
Nautical Twilight 5:13 AM HST 7:31 PM HST
Astronomical Twilight 4:46 AM HST 7:58 PM HST
Moon No Moon Rise 10:49 AM HST
Length of Visible Light 13h 25m
Length of Day
12h 40m
Tomorrow will be 1m 1s longer.
Waning Gibbous, 66% of the Moon is Illuminated
Today
Waning Gibbous
Apr 22
Last Quarter
Apr 29
New
May 6
First Quarter
May 14
Full

Today's Extremes

State Highs State Lows

Community

  • spring skiing mount Baker WA
    spring skiing mount Baker WA
  • Morning Sun
    Morning Sun
  • after rain
    after rain
  • Columbine
    Columbine
  • Easter Sunrise
    Easter Sunrise

WunderPhotos

Upload Photos

1,703,423 photos uploaded!

WunderBlogs® & News

Nearby

Snow Depth

Station Depth Elevation
No new snow has been reported.

Coastal Water Temperatures

Place Temperature
No Stations Reporting

Earthquake Activity

City Distance Mag. Time & Date
No recent earthquake activity has been reported nearby.
Minimum magnitude displayed is 2.5.

Nearby Weather Stations

Station Location Temp. Heat Index Dew Point Humidity Wind Precip. Elev Updated Type
Captain Cook, Captain Cook, HI 77.6 °F 79 °F 65 °F 65% WNW  at  2.0 mph 0.00 in / hr 915 ft 12:30 PM HST Normal
Halemalu, Captain Cook, HI 79.3 °F 81 °F 64 °F 59% SW  at  1.0 mph 0.00 in / hr 1700 ft 12:35 PM HST Rapid Fire

Show More Stations Show Fewer Stations

What do you think?

We're not finished. Please let us know what you like, what you don't like, and what you are still missing.